Huvudsida
METAR-TAF:

METAR-TAF

Flygplatser :

Rom-Ciampino flygplats

Rom Ciampino, Italien

latitud: 41-47N, longitud: 012-35E, höjd: 129 m

Aktuellt väderrapport

Denna rapport gjordes för 30 minuter sedan, klockan 13:50 UTC
Vind 6 kt från väst/nordväst, varierande mellan väst och nord/nordväst
Temperatur 16°C
Fuktighet 48%
Tryck 1030 hPa
Sikt 10 km eller mer
Inga moln under 1 500 m eller inga cumulonimbus

METAR: LIRA 221350Z 29006KT 260V330 CAVOK 16/05 Q1030

Tid: 15:20 (14:20 UTC)

Väderprognos

Denna rapport gjordes för 3 timmar och 20 minuter sedan, klockan 11:00 UTC
Prognos gäller från 22 kl. 12 UTC till 23 kl. 12 UTC
Vind 5 kt varierande vindriktning
Sikt 10 km eller mer
Inga moln under 1 500 m eller inga cumulonimbus

TAF: LIRA 221100Z 2212/2312 VRB05KT CAVOK

Aktuella väderrapporter och prognoser från 4000 flygplatser (METAR- och TAF-rapporter).

De tillgängliga stationerna syns som gula och röda prickar på kartan.

För musen över prickarna för att se namnen på stationerna.

Klicka sedan för att få väderrapporter och prognoser.

För att ändra kartan: Klicka på de gröna knapparna med ett svart kors på för att zooma in; den gröna knappen med ett streck på för att zooma ut; eller på de gröna pilarna för angränsande kartor.


METAR-TAF: